createdAt,value
2023-03-30T00:03:50.881Z,76.5
2023-03-30T00:09:50.714Z,76.5
2023-03-30T00:15:50.731Z,76.6
2023-03-30T00:21:50.770Z,77.2
2023-03-30T00:27:50.742Z,77.2
2023-03-30T00:33:50.727Z,75.9
2023-03-30T00:39:50.712Z,75.1
2023-03-30T00:45:50.733Z,74.5
2023-03-30T00:51:50.747Z,75.2
2023-03-30T00:57:50.744Z,75.4
2023-03-30T01:03:50.900Z,74.7
2023-03-30T01:09:50.721Z,72.9
2023-03-30T01:15:50.827Z,73.1
2023-03-30T01:22:01.043Z,71.8
2023-03-30T01:27:50.726Z,71.5
2023-03-30T01:33:50.725Z,73.5
2023-03-30T01:39:50.736Z,72.9
2023-03-30T01:45:50.710Z,72.2
2023-03-30T01:51:50.721Z,72.6
2023-03-30T01:57:50.707Z,73.2
2023-03-30T02:03:50.781Z,72.8
2023-03-30T02:09:50.707Z,74
2023-03-30T02:15:50.749Z,75.3
2023-03-30T02:22:00.999Z,77.9
2023-03-30T02:27:50.708Z,78.7
2023-03-30T02:33:50.728Z,79.3
2023-03-30T02:39:50.728Z,79.6
2023-03-30T02:45:50.749Z,80.8
2023-03-30T02:51:50.713Z,81.9
2023-03-30T02:57:50.727Z,82.4
2023-03-30T03:03:50.828Z,84.3
2023-03-30T03:09:50.717Z,86.2
2023-03-30T03:15:50.715Z,85.8
2023-03-30T03:21:50.746Z,88.5
2023-03-30T03:27:50.726Z,87.4
2023-03-30T03:33:50.733Z,89.9
2023-03-30T03:39:50.732Z,90.2
2023-03-30T03:45:50.708Z,91.2
2023-03-30T03:51:50.745Z,93.8
2023-03-30T03:57:50.742Z,93.9
2023-03-30T04:03:50.711Z,95.2
2023-03-30T04:09:50.728Z,96.3
2023-03-30T04:21:50.730Z,98.4
2023-03-30T04:27:50.726Z,96.3
2023-03-30T04:33:51.996Z,96.9
2023-03-30T04:39:50.780Z,97.5
2023-03-30T04:45:50.764Z,97.8
2023-03-30T04:51:50.725Z,98
2023-03-30T04:57:50.755Z,98.9
2023-03-30T05:03:50.762Z,97
2023-03-30T05:09:50.740Z,100
2023-03-30T05:15:50.729Z,100
2023-03-30T05:21:50.730Z,99.9
2023-03-30T05:27:50.728Z,99.7
2023-03-30T05:33:50.742Z,99.5
2023-03-30T05:39:50.728Z,100
2023-03-30T05:45:50.806Z,100
2023-03-30T05:51:50.730Z,99.9
2023-03-30T05:57:50.722Z,100
2023-03-30T06:03:50.997Z,100
2023-03-30T06:09:50.746Z,99.4
2023-03-30T06:15:50.749Z,100
2023-03-30T06:21:50.735Z,99
2023-03-30T06:33:50.755Z,98.3
2023-03-30T06:39:50.744Z,96.9
2023-03-30T06:45:50.778Z,97.4
2023-03-30T06:51:50.743Z,98.7
2023-03-30T06:57:50.773Z,97.6
2023-03-30T07:03:50.781Z,96.8
2023-03-30T07:09:50.730Z,96.8
2023-03-30T07:15:50.737Z,96
2023-03-30T07:21:50.809Z,96.9
2023-03-30T07:27:50.733Z,97.4
2023-03-30T07:33:50.799Z,95.6
2023-03-30T07:39:50.798Z,94.9
2023-03-30T07:45:50.803Z,96.8
2023-03-30T07:51:50.742Z,91.2
2023-03-30T07:57:50.735Z,90.5
2023-03-30T08:03:50.826Z,89
2023-03-30T08:09:50.761Z,88.5
2023-03-30T08:15:50.878Z,87.7
2023-03-30T08:21:50.736Z,89.6
2023-03-30T08:27:50.752Z,87
2023-03-30T08:33:50.761Z,85.7
2023-03-30T08:39:50.749Z,84.8
2023-03-30T08:45:50.744Z,83.3
2023-03-30T08:51:50.727Z,83.5
2023-03-30T08:57:50.831Z,77.9
2023-03-30T09:03:50.741Z,77.6
2023-03-30T09:09:50.756Z,76.4
2023-03-30T09:15:50.734Z,75.1
2023-03-30T09:21:50.756Z,74.4
2023-03-30T09:27:50.750Z,72.4
2023-03-30T09:33:50.751Z,70.7
2023-03-30T09:39:50.755Z,72.7
2023-03-30T09:45:50.825Z,71.8
2023-03-30T09:51:50.753Z,72
2023-03-30T09:57:50.746Z,71.3
2023-03-30T10:03:50.948Z,74.7
2023-03-30T10:09:50.754Z,71.3
2023-03-30T10:15:50.791Z,100
2023-03-30T10:21:50.751Z,100
2023-03-30T10:27:50.736Z,100
2023-03-30T10:33:50.760Z,100
2023-03-30T10:39:50.756Z,100
2023-03-30T10:45:50.797Z,100
2023-03-30T10:51:50.742Z,100
2023-03-30T10:57:50.735Z,100
2023-03-30T11:03:50.840Z,100
2023-03-30T11:09:50.790Z,93.5
2023-03-30T11:15:50.756Z,79
2023-03-30T11:21:50.794Z,90.5
2023-03-30T11:27:50.741Z,96.1
2023-03-30T11:33:50.749Z,95.5
2023-03-30T11:39:50.765Z,97.4
2023-03-30T11:45:50.852Z,98.9
2023-03-30T11:51:50.747Z,100
2023-03-30T11:57:50.753Z,100
2023-03-30T12:03:50.942Z,100
2023-03-30T12:09:50.750Z,94.6
2023-03-30T12:15:50.834Z,89.2
2023-03-30T12:21:50.757Z,80.1
2023-03-30T12:27:50.755Z,80.2
2023-03-30T12:33:50.757Z,81.2
2023-03-30T12:39:50.762Z,82.2
2023-03-30T12:45:50.785Z,79.1
2023-03-30T12:51:50.748Z,78.6
2023-03-30T12:57:50.808Z,77
2023-03-30T13:03:50.775Z,72.8
2023-03-30T13:09:50.764Z,75.6
2023-03-30T13:15:50.770Z,72.2
2023-03-30T13:21:50.771Z,75.7
2023-03-30T13:27:50.771Z,76.8
2023-03-30T13:33:50.764Z,73.8
2023-03-30T13:39:50.752Z,70.9
2023-03-30T13:45:50.790Z,72.2
2023-03-30T13:51:50.784Z,74.2
2023-03-30T13:57:50.752Z,83.3
2023-03-30T14:03:50.805Z,93.3
2023-03-30T14:09:50.768Z,100
2023-03-30T14:15:50.854Z,100
2023-03-30T14:21:50.758Z,100
2023-03-30T14:27:50.776Z,100
2023-03-30T14:33:50.762Z,99.5
2023-03-30T14:39:50.891Z,95.7
2023-03-30T14:45:50.804Z,95
2023-03-30T14:51:50.778Z,93.5
2023-03-30T14:57:50.778Z,91.3
2023-03-30T15:03:50.830Z,90.2
2023-03-30T15:09:50.757Z,88.6
2023-03-30T15:15:50.844Z,86.8
2023-03-30T15:21:50.757Z,83.2
2023-03-30T15:27:50.784Z,76.9
2023-03-30T15:33:50.783Z,72.2
2023-03-30T15:39:50.757Z,75.1
2023-03-30T15:45:50.891Z,75.7
2023-03-30T15:51:50.872Z,69.6
2023-03-30T15:57:50.763Z,71.5
2023-03-30T16:03:50.792Z,74
2023-03-30T16:09:50.778Z,78.9
2023-03-30T16:15:50.803Z,82.3
2023-03-30T16:21:50.800Z,81
2023-03-30T16:27:50.776Z,81.4
2023-03-30T16:33:50.771Z,82.1
2023-03-30T16:39:50.780Z,81
2023-03-30T16:45:50.901Z,78.1
2023-03-30T16:51:50.802Z,75.2
2023-03-30T16:57:50.787Z,73.3
2023-03-30T17:03:50.779Z,76.5
2023-03-30T17:09:50.779Z,76.9
2023-03-30T17:15:50.793Z,77.6
2023-03-30T17:21:50.785Z,76.9
2023-03-30T17:27:50.772Z,77
2023-03-30T17:33:50.786Z,76.1
2023-03-30T17:39:50.781Z,77.8
2023-03-30T17:45:50.831Z,77.7
2023-03-30T17:51:50.779Z,79.1
2023-03-30T17:57:50.788Z,79.5
2023-03-30T18:03:50.915Z,82.1
2023-03-30T18:09:50.779Z,83
2023-03-30T18:15:50.812Z,84
2023-03-30T18:21:50.793Z,84.3
2023-03-30T18:27:50.777Z,84.1
2023-03-30T18:33:53.244Z,85.6
2023-03-30T18:39:50.787Z,86.1
2023-03-30T18:45:50.801Z,87.5
2023-03-30T18:51:50.776Z,88.5
2023-03-30T18:57:50.787Z,91
2023-03-30T19:03:50.788Z,91
2023-03-30T19:09:50.779Z,92.4
2023-03-30T19:15:50.785Z,92.1
2023-03-30T19:21:50.791Z,94.9
2023-03-30T19:28:01.967Z,95.7
2023-03-30T19:33:50.804Z,98.5
2023-03-30T19:39:50.805Z,97.6
2023-03-30T19:45:50.827Z,98.6
2023-03-30T19:51:50.783Z,99.1
2023-03-30T19:57:50.795Z,99.7
2023-03-30T20:03:50.796Z,100
2023-03-30T20:09:50.790Z,100
2023-03-30T20:15:50.826Z,100
2023-03-30T20:21:50.777Z,100
2023-03-30T20:27:50.784Z,100
2023-03-30T20:33:50.783Z,100
2023-03-30T20:39:50.786Z,100
2023-03-30T20:45:50.876Z,100
2023-03-30T20:51:50.796Z,100
2023-03-30T20:57:50.802Z,100
2023-03-30T21:03:50.828Z,100
2023-03-30T21:09:50.791Z,100
2023-03-30T21:15:50.782Z,100
2023-03-30T21:21:50.818Z,100
2023-03-30T21:27:50.779Z,100
2023-03-30T21:33:50.830Z,100
2023-03-30T21:39:50.798Z,100
2023-03-30T21:45:50.813Z,100
2023-03-30T21:51:50.807Z,100
2023-03-30T21:57:50.785Z,100
2023-03-30T22:03:50.929Z,100
2023-03-30T22:09:50.777Z,100
2023-03-30T22:15:50.832Z,100
2023-03-30T22:21:50.787Z,100
2023-03-30T22:27:50.822Z,100
2023-03-30T22:33:50.782Z,100
2023-03-30T22:39:50.793Z,100
2023-03-30T22:45:50.838Z,100
2023-03-30T22:51:53.037Z,100
2023-03-30T22:57:50.823Z,100
2023-03-30T23:03:50.839Z,100
2023-03-30T23:09:50.791Z,100
2023-03-30T23:15:50.803Z,100
2023-03-30T23:21:50.776Z,100
2023-03-30T23:27:50.792Z,100
2023-03-30T23:33:50.771Z,100
2023-03-30T23:39:50.788Z,100
2023-03-30T23:45:50.812Z,100
2023-03-30T23:51:50.772Z,100
2023-03-30T23:57:50.788Z,100
